sensor_id;sensor_type;location;lat;lon;timestamp;temperature;humidity
7461;DHT22;6757;52.258;12.840;2023-07-24T00:00:07;19.30;99.90
7461;DHT22;6757;52.258;12.840;2023-07-24T00:02:35;19.20;99.90
7461;DHT22;6757;52.258;12.840;2023-07-24T00:05:03;19.20;99.90
7461;DHT22;6757;52.258;12.840;2023-07-24T00:07:30;19.10;99.90
7461;DHT22;6757;52.258;12.840;2023-07-24T00:09:57;19.10;99.90
7461;DHT22;6757;52.258;12.840;2023-07-24T00:12:24;19.00;99.90
7461;DHT22;6757;52.258;12.840;2023-07-24T00:14:52;19.00;99.90
7461;DHT22;6757;52.258;12.840;2023-07-24T00:17:19;18.90;99.90
7461;DHT22;6757;52.258;12.840;2023-07-24T00:19:47;18.90;99.90
7461;DHT22;6757;52.258;12.840;2023-07-24T00:22:14;18.80;99.90
7461;DHT22;6757;52.258;12.840;2023-07-24T00:24:41;18.80;99.90
7461;DHT22;6757;52.258;12.840;2023-07-24T00:27:08;18.80;99.90
7461;DHT22;6757;52.258;12.840;2023-07-24T00:29:35;18.90;99.90
7461;DHT22;6757;52.258;12.840;2023-07-24T00:32:03;18.80;99.90
7461;DHT22;6757;52.258;12.840;2023-07-24T00:34:30;18.90;99.90
7461;DHT22;6757;52.258;12.840;2023-07-24T00:36:58;19.00;99.90
7461;DHT22;6757;52.258;12.840;2023-07-24T00:39:25;19.10;99.90
7461;DHT22;6757;52.258;12.840;2023-07-24T00:41:53;19.00;99.90
7461;DHT22;6757;52.258;12.840;2023-07-24T00:44:21;19.00;99.90
7461;DHT22;6757;52.258;12.840;2023-07-24T00:46:47;19.00;99.90
7461;DHT22;6757;52.258;12.840;2023-07-24T00:49:15;19.00;99.90
7461;DHT22;6757;52.258;12.840;2023-07-24T00:51:42;19.00;99.90
7461;DHT22;6757;52.258;12.840;2023-07-24T00:54:11;19.00;99.90
7461;DHT22;6757;52.258;12.840;2023-07-24T00:56:38;19.00;99.90
7461;DHT22;6757;52.258;12.840;2023-07-24T00:59:05;19.60;99.90
7461;DHT22;6757;52.258;12.840;2023-07-24T01:01:32;19.00;99.90
7461;DHT22;6757;52.258;12.840;2023-07-24T01:04:03;19.00;99.90
7461;DHT22;6757;52.258;12.840;2023-07-24T01:06:32;18.90;99.90
7461;DHT22;6757;52.258;12.840;2023-07-24T01:08:59;18.90;99.90
7461;DHT22;6757;52.258;12.840;2023-07-24T01:11:29;18.90;99.90
7461;DHT22;6757;52.258;12.840;2023-07-24T01:14:04;18.90;99.90
7461;DHT22;6757;52.258;12.840;2023-07-24T01:16:37;18.90;99.90
7461;DHT22;6757;52.258;12.840;2023-07-24T01:19:12;18.90;99.90
7461;DHT22;6757;52.258;12.840;2023-07-24T01:21:52;18.80;99.90
7461;DHT22;6757;52.258;12.840;2023-07-24T01:24:33;18.80;99.90
7461;DHT22;6757;52.258;12.840;2023-07-24T01:27:04;18.80;99.90
7461;DHT22;6757;52.258;12.840;2023-07-24T01:29:33;18.80;99.90
7461;DHT22;6757;52.258;12.840;2023-07-24T01:32:00;18.70;99.90
7461;DHT22;6757;52.258;12.840;2023-07-24T01:34:27;18.70;99.90
7461;DHT22;6757;52.258;12.840;2023-07-24T01:36:55;18.60;99.90
7461;DHT22;6757;52.258;12.840;2023-07-24T01:39:22;18.60;99.90
7461;DHT22;6757;52.258;12.840;2023-07-24T01:41:50;18.60;99.90
7461;DHT22;6757;52.258;12.840;2023-07-24T01:44:18;18.60;99.90
7461;DHT22;6757;52.258;12.840;2023-07-24T01:46:46;18.60;99.90
7461;DHT22;6757;52.258;12.840;2023-07-24T01:49:13;18.60;99.90
7461;DHT22;6757;52.258;12.840;2023-07-24T01:51:39;18.60;99.90
7461;DHT22;6757;52.258;12.840;2023-07-24T01:54:06;18.60;99.90
7461;DHT22;6757;52.258;12.840;2023-07-24T01:56:36;18.70;99.90
7461;DHT22;6757;52.258;12.840;2023-07-24T01:59:05;18.70;99.90
7461;DHT22;6757;52.258;12.840;2023-07-24T02:01:33;18.70;99.90
7461;DHT22;6757;52.258;12.840;2023-07-24T02:04:00;18.70;99.90
7461;DHT22;6757;52.258;12.840;2023-07-24T02:06:27;18.70;99.90
7461;DHT22;6757;52.258;12.840;2023-07-24T02:08:54;18.70;99.90
7461;DHT22;6757;52.258;12.840;2023-07-24T02:11:21;18.70;99.90
7461;DHT22;6757;52.258;12.840;2023-07-24T02:13:48;18.70;99.90
7461;DHT22;6757;52.258;12.840;2023-07-24T02:16:15;18.80;99.90
7461;DHT22;6757;52.258;12.840;2023-07-24T02:18:43;18.80;99.90
7461;DHT22;6757;52.258;12.840;2023-07-24T02:21:10;18.80;99.90
7461;DHT22;6757;52.258;12.840;2023-07-24T02:23:37;18.80;99.90
7461;DHT22;6757;52.258;12.840;2023-07-24T02:26:04;18.80;99.90
7461;DHT22;6757;52.258;12.840;2023-07-24T02:28:31;18.80;99.90
7461;DHT22;6757;52.258;12.840;2023-07-24T02:30:58;18.80;99.90
7461;DHT22;6757;52.258;12.840;2023-07-24T02:33:25;18.80;99.90
7461;DHT22;6757;52.258;12.840;2023-07-24T02:35:54;18.90;99.90
7461;DHT22;6757;52.258;12.840;2023-07-24T02:38:20;18.80;99.90
7461;DHT22;6757;52.258;12.840;2023-07-24T02:40:47;18.90;99.90
7461;DHT22;6757;52.258;12.840;2023-07-24T02:43:14;18.90;99.90
7461;DHT22;6757;52.258;12.840;2023-07-24T02:45:41;18.90;99.90
7461;DHT22;6757;52.258;12.840;2023-07-24T02:48:08;18.90;99.90
7461;DHT22;6757;52.258;12.840;2023-07-24T02:50:35;18.90;99.90
7461;DHT22;6757;52.258;12.840;2023-07-24T02:53:03;18.90;99.90
7461;DHT22;6757;52.258;12.840;2023-07-24T02:55:30;19.00;99.90
7461;DHT22;6757;52.258;12.840;2023-07-24T02:57:57;19.00;99.90
7461;DHT22;6757;52.258;12.840;2023-07-24T03:00:24;19.00;99.90
7461;DHT22;6757;52.258;12.840;2023-07-24T03:02:52;19.00;99.90
7461;DHT22;6757;52.258;12.840;2023-07-24T03:05:19;19.00;99.90
7461;DHT22;6757;52.258;12.840;2023-07-24T03:07:46;19.00;99.90
7461;DHT22;6757;52.258;12.840;2023-07-24T03:10:14;19.00;99.90
7461;DHT22;6757;52.258;12.840;2023-07-24T03:12:41;19.00;99.90
7461;DHT22;6757;52.258;12.840;2023-07-24T03:15:09;19.10;99.90
7461;DHT22;6757;52.258;12.840;2023-07-24T03:17:36;19.10;99.90
7461;DHT22;6757;52.258;12.840;2023-07-24T03:20:14;19.20;99.90
7461;DHT22;6757;52.258;12.840;2023-07-24T03:22:45;19.10;99.90
7461;DHT22;6757;52.258;12.840;2023-07-24T03:25:14;19.20;99.90
7461;DHT22;6757;52.258;12.840;2023-07-24T03:27:41;19.20;99.90
7461;DHT22;6757;52.258;12.840;2023-07-24T03:30:09;19.20;99.90
7461;DHT22;6757;52.258;12.840;2023-07-24T03:32:36;19.20;99.90
7461;DHT22;6757;52.258;12.840;2023-07-24T03:35:04;19.20;99.90
7461;DHT22;6757;52.258;12.840;2023-07-24T03:37:33;19.20;99.90
7461;DHT22;6757;52.258;12.840;2023-07-24T03:40:01;19.20;99.90
7461;DHT22;6757;52.258;12.840;2023-07-24T03:42:30;19.30;99.90
7461;DHT22;6757;52.258;12.840;2023-07-24T03:44:57;19.20;99.90
7461;DHT22;6757;52.258;12.840;2023-07-24T03:47:24;19.30;99.90
7461;DHT22;6757;52.258;12.840;2023-07-24T03:49:51;19.30;99.90
7461;DHT22;6757;52.258;12.840;2023-07-24T03:52:18;19.30;99.90
7461;DHT22;6757;52.258;12.840;2023-07-24T03:54:45;19.30;99.90
7461;DHT22;6757;52.258;12.840;2023-07-24T03:57:12;19.30;99.90
7461;DHT22;6757;52.258;12.840;2023-07-24T03:59:40;19.30;99.90
7461;DHT22;6757;52.258;12.840;2023-07-24T04:02:07;19.40;99.90
7461;DHT22;6757;52.258;12.840;2023-07-24T04:04:34;19.30;99.90
7461;DHT22;6757;52.258;12.840;2023-07-24T04:07:01;19.30;99.90
7461;DHT22;6757;52.258;12.840;2023-07-24T04:09:29;19.40;99.90
7461;DHT22;6757;52.258;12.840;2023-07-24T04:11:56;19.40;99.90
7461;DHT22;6757;52.258;12.840;2023-07-24T04:14:22;19.40;99.90
7461;DHT22;6757;52.258;12.840;2023-07-24T04:16:51;19.40;99.90
7461;DHT22;6757;52.258;12.840;2023-07-24T04:19:18;19.50;99.90
7461;DHT22;6757;52.258;12.840;2023-07-24T04:21:44;19.50;99.90
7461;DHT22;6757;52.258;12.840;2023-07-24T04:24:11;19.50;99.90
7461;DHT22;6757;52.258;12.840;2023-07-24T04:26:38;19.60;99.90
7461;DHT22;6757;52.258;12.840;2023-07-24T04:29:06;19.50;99.90
7461;DHT22;6757;52.258;12.840;2023-07-24T04:31:33;19.60;99.90
7461;DHT22;6757;52.258;12.840;2023-07-24T04:34:01;19.60;99.90
7461;DHT22;6757;52.258;12.840;2023-07-24T04:36:28;19.70;99.90
7461;DHT22;6757;52.258;12.840;2023-07-24T04:38:55;19.70;99.90
7461;DHT22;6757;52.258;12.840;2023-07-24T04:41:21;19.60;99.90
7461;DHT22;6757;52.258;12.840;2023-07-24T04:43:48;19.70;99.90
7461;DHT22;6757;52.258;12.840;2023-07-24T04:46:15;19.70;99.90
7461;DHT22;6757;52.258;12.840;2023-07-24T04:48:42;19.70;99.90
7461;DHT22;6757;52.258;12.840;2023-07-24T04:51:10;19.70;99.90
7461;DHT22;6757;52.258;12.840;2023-07-24T04:53:37;19.70;99.90
7461;DHT22;6757;52.258;12.840;2023-07-24T04:56:04;19.80;99.90
7461;DHT22;6757;52.258;12.840;2023-07-24T04:58:31;20.10;99.90
7461;DHT22;6757;52.258;12.840;2023-07-24T05:01:02;19.80;99.90
7461;DHT22;6757;52.258;12.840;2023-07-24T05:03:30;19.90;99.90
7461;DHT22;6757;52.258;12.840;2023-07-24T05:05:57;19.80;99.90
7461;DHT22;6757;52.258;12.840;2023-07-24T05:08:25;19.90;99.90
7461;DHT22;6757;52.258;12.840;2023-07-24T05:10:55;19.90;99.90
7461;DHT22;6757;52.258;12.840;2023-07-24T05:13:22;19.90;99.90
7461;DHT22;6757;52.258;12.840;2023-07-24T05:15:49;19.90;99.90
7461;DHT22;6757;52.258;12.840;2023-07-24T05:18:16;20.00;99.90
7461;DHT22;6757;52.258;12.840;2023-07-24T05:20:44;20.00;99.90
7461;DHT22;6757;52.258;12.840;2023-07-24T05:23:12;20.00;99.90
7461;DHT22;6757;52.258;12.840;2023-07-24T05:25:41;20.10;99.90
7461;DHT22;6757;52.258;12.840;2023-07-24T05:28:08;20.00;99.90
7461;DHT22;6757;52.258;12.840;2023-07-24T05:30:35;20.20;99.90
7461;DHT22;6757;52.258;12.840;2023-07-24T05:33:02;20.30;99.90
7461;DHT22;6757;52.258;12.840;2023-07-24T05:35:29;20.30;99.90
7461;DHT22;6757;52.258;12.840;2023-07-24T05:37:56;20.40;99.90
7461;DHT22;6757;52.258;12.840;2023-07-24T05:40:23;20.40;99.90
7461;DHT22;6757;52.258;12.840;2023-07-24T05:42:51;20.50;99.90
7461;DHT22;6757;52.258;12.840;2023-07-24T05:45:18;20.50;99.90
7461;DHT22;6757;52.258;12.840;2023-07-24T05:47:45;20.60;99.90
7461;DHT22;6757;52.258;12.840;2023-07-24T05:50:12;20.60;99.90
7461;DHT22;6757;52.258;12.840;2023-07-24T05:52:39;20.70;99.90
7461;DHT22;6757;52.258;12.840;2023-07-24T05:55:08;20.80;99.90
7461;DHT22;6757;52.258;12.840;2023-07-24T05:57:35;20.80;99.90
7461;DHT22;6757;52.258;12.840;2023-07-24T06:00:04;20.80;99.90
7461;DHT22;6757;52.258;12.840;2023-07-24T06:02:33;20.90;99.90
7461;DHT22;6757;52.258;12.840;2023-07-24T06:04:59;20.90;99.90
7461;DHT22;6757;52.258;12.840;2023-07-24T06:07:26;21.00;99.90
7461;DHT22;6757;52.258;12.840;2023-07-24T06:09:53;21.00;99.90
7461;DHT22;6757;52.258;12.840;2023-07-24T06:12:20;21.10;99.90
7461;DHT22;6757;52.258;12.840;2023-07-24T06:14:47;21.20;99.90
7461;DHT22;6757;52.258;12.840;2023-07-24T06:17:15;21.30;99.90
7461;DHT22;6757;52.258;12.840;2023-07-24T06:19:42;21.40;99.90
7461;DHT22;6757;52.258;12.840;2023-07-24T06:22:09;21.40;99.90
7461;DHT22;6757;52.258;12.840;2023-07-24T06:24:36;21.50;99.90
7461;DHT22;6757;52.258;12.840;2023-07-24T06:27:04;21.50;99.90
7461;DHT22;6757;52.258;12.840;2023-07-24T06:29:32;21.50;99.90
7461;DHT22;6757;52.258;12.840;2023-07-24T06:31:59;21.50;99.90
7461;DHT22;6757;52.258;12.840;2023-07-24T06:34:27;21.70;99.90
7461;DHT22;6757;52.258;12.840;2023-07-24T06:36:54;21.70;99.90
7461;DHT22;6757;52.258;12.840;2023-07-24T06:39:21;21.70;99.90
7461;DHT22;6757;52.258;12.840;2023-07-24T06:41:47;21.80;99.90
7461;DHT22;6757;52.258;12.840;2023-07-24T06:44:15;21.70;99.90
7461;DHT22;6757;52.258;12.840;2023-07-24T06:46:41;21.80;99.90
7461;DHT22;6757;52.258;12.840;2023-07-24T06:49:08;21.80;99.90
7461;DHT22;6757;52.258;12.840;2023-07-24T06:51:37;21.80;99.90
7461;DHT22;6757;52.258;12.840;2023-07-24T06:54:04;21.80;99.90
7461;DHT22;6757;52.258;12.840;2023-07-24T06:56:32;21.90;99.90
7461;DHT22;6757;52.258;12.840;2023-07-24T06:58:59;21.90;99.90
7461;DHT22;6757;52.258;12.840;2023-07-24T07:01:26;22.00;99.90
7461;DHT22;6757;52.258;12.840;2023-07-24T07:03:53;22.00;99.90
7461;DHT22;6757;52.258;12.840;2023-07-24T07:06:19;22.00;99.90
7461;DHT22;6757;52.258;12.840;2023-07-24T07:08:48;22.10;99.90
7461;DHT22;6757;52.258;12.840;2023-07-24T07:11:15;22.20;99.90
7461;DHT22;6757;52.258;12.840;2023-07-24T07:13:41;22.30;99.90
7461;DHT22;6757;52.258;12.840;2023-07-24T07:16:08;22.40;99.90
7461;DHT22;6757;52.258;12.840;2023-07-24T07:18:35;22.40;99.90
7461;DHT22;6757;52.258;12.840;2023-07-24T07:21:02;22.50;99.90
7461;DHT22;6757;52.258;12.840;2023-07-24T07:23:29;22.60;99.90
7461;DHT22;6757;52.258;12.840;2023-07-24T07:25:57;22.70;99.90
7461;DHT22;6757;52.258;12.840;2023-07-24T07:28:24;22.80;99.90
7461;DHT22;6757;52.258;12.840;2023-07-24T07:30:51;22.80;99.90
7461;DHT22;6757;52.258;12.840;2023-07-24T07:33:18;22.90;99.90
7461;DHT22;6757;52.258;12.840;2023-07-24T07:35:47;23.10;99.90
7461;DHT22;6757;52.258;12.840;2023-07-24T07:38:14;23.10;99.90
7461;DHT22;6757;52.258;12.840;2023-07-24T07:40:41;23.20;99.90
7461;DHT22;6757;52.258;12.840;2023-07-24T07:43:09;23.40;99.90
7461;DHT22;6757;52.258;12.840;2023-07-24T07:45:36;23.40;99.90
7461;DHT22;6757;52.258;12.840;2023-07-24T07:48:03;23.40;99.90
7461;DHT22;6757;52.258;12.840;2023-07-24T07:50:31;23.50;99.90
7461;DHT22;6757;52.258;12.840;2023-07-24T07:52:58;23.60;99.90
7461;DHT22;6757;52.258;12.840;2023-07-24T07:55:25;23.70;99.90
7461;DHT22;6757;52.258;12.840;2023-07-24T07:57:52;23.80;99.90
7461;DHT22;6757;52.258;12.840;2023-07-24T08:00:20;23.80;99.90
7461;DHT22;6757;52.258;12.840;2023-07-24T08:02:47;23.80;99.90
7461;DHT22;6757;52.258;12.840;2023-07-24T08:05:14;23.70;99.90
7461;DHT22;6757;52.258;12.840;2023-07-24T08:07:42;23.70;99.90
7461;DHT22;6757;52.258;12.840;2023-07-24T08:10:09;23.80;99.90
7461;DHT22;6757;52.258;12.840;2023-07-24T08:12:36;23.70;99.90
7461;DHT22;6757;52.258;12.840;2023-07-24T08:15:03;23.80;99.90
7461;DHT22;6757;52.258;12.840;2023-07-24T08:17:32;23.70;99.90
7461;DHT22;6757;52.258;12.840;2023-07-24T08:19:59;23.80;99.90
7461;DHT22;6757;52.258;12.840;2023-07-24T08:22:26;23.80;99.90
7461;DHT22;6757;52.258;12.840;2023-07-24T08:24:53;23.90;99.90
7461;DHT22;6757;52.258;12.840;2023-07-24T08:27:20;24.00;99.90
7461;DHT22;6757;52.258;12.840;2023-07-24T08:29:50;24.00;99.90
7461;DHT22;6757;52.258;12.840;2023-07-24T08:32:18;24.00;99.90
7461;DHT22;6757;52.258;12.840;2023-07-24T08:34:46;24.10;99.90
7461;DHT22;6757;52.258;12.840;2023-07-24T08:37:13;24.10;99.90
7461;DHT22;6757;52.258;12.840;2023-07-24T08:39:40;24.20;99.90
7461;DHT22;6757;52.258;12.840;2023-07-24T08:42:10;24.20;99.90
7461;DHT22;6757;52.258;12.840;2023-07-24T08:44:38;24.20;99.90
7461;DHT22;6757;52.258;12.840;2023-07-24T08:47:09;24.40;99.90
7461;DHT22;6757;52.258;12.840;2023-07-24T08:49:37;24.40;99.90
7461;DHT22;6757;52.258;12.840;2023-07-24T08:52:07;24.50;99.90
7461;DHT22;6757;52.258;12.840;2023-07-24T08:54:36;24.60;99.90
7461;DHT22;6757;52.258;12.840;2023-07-24T08:57:06;24.50;99.90
7461;DHT22;6757;52.258;12.840;2023-07-24T08:59:34;24.60;99.90
7461;DHT22;6757;52.258;12.840;2023-07-24T09:02:01;24.60;99.90
7461;DHT22;6757;52.258;12.840;2023-07-24T09:04:28;24.70;99.90
7461;DHT22;6757;52.258;12.840;2023-07-24T09:06:56;24.80;99.90
7461;DHT22;6757;52.258;12.840;2023-07-24T09:09:29;24.80;99.90
7461;DHT22;6757;52.258;12.840;2023-07-24T09:11:56;24.80;99.90
7461;DHT22;6757;52.258;12.840;2023-07-24T09:14:26;24.70;99.90
7461;DHT22;6757;52.258;12.840;2023-07-24T09:17:04;24.70;99.90
7461;DHT22;6757;52.258;12.840;2023-07-24T09:19:32;24.70;99.90
7461;DHT22;6757;52.258;12.840;2023-07-24T09:22:09;24.70;99.90
7461;DHT22;6757;52.258;12.840;2023-07-24T09:24:38;24.70;99.90
7461;DHT22;6757;52.258;12.840;2023-07-24T09:27:15;24.70;99.90
7461;DHT22;6757;52.258;12.840;2023-07-24T09:29:42;24.80;99.90
7461;DHT22;6757;52.258;12.840;2023-07-24T09:32:18;24.90;99.90
7461;DHT22;6757;52.258;12.840;2023-07-24T09:34:46;25.00;99.90
7461;DHT22;6757;52.258;12.840;2023-07-24T09:37:23;25.10;99.90
7461;DHT22;6757;52.258;12.840;2023-07-24T09:39:53;25.30;99.90
7461;DHT22;6757;52.258;12.840;2023-07-24T09:42:28;25.30;99.90
7461;DHT22;6757;52.258;12.840;2023-07-24T09:44:56;25.50;99.90
7461;DHT22;6757;52.258;12.840;2023-07-24T09:47:23;25.60;99.90
7461;DHT22;6757;52.258;12.840;2023-07-24T09:49:51;25.70;99.90
7461;DHT22;6757;52.258;12.840;2023-07-24T09:52:19;25.90;99.90
7461;DHT22;6757;52.258;12.840;2023-07-24T09:54:54;25.90;99.90
7461;DHT22;6757;52.258;12.840;2023-07-24T09:57:23;26.00;99.90
7461;DHT22;6757;52.258;12.840;2023-07-24T09:59:52;26.00;99.90
7461;DHT22;6757;52.258;12.840;2023-07-24T10:02:20;26.00;99.90
7461;DHT22;6757;52.258;12.840;2023-07-24T10:04:47;26.00;99.90
7461;DHT22;6757;52.258;12.840;2023-07-24T10:07:15;26.00;99.90
7461;DHT22;6757;52.258;12.840;2023-07-24T10:09:47;26.10;99.60
7461;DHT22;6757;52.258;12.840;2023-07-24T10:12:17;26.10;99.00
7461;DHT22;6757;52.258;12.840;2023-07-24T10:14:45;26.20;98.50
7461;DHT22;6757;52.258;12.840;2023-07-24T10:17:13;26.30;97.60
7461;DHT22;6757;52.258;12.840;2023-07-24T10:19:40;26.40;97.10
7461;DHT22;6757;52.258;12.840;2023-07-24T10:22:09;26.50;96.80
7461;DHT22;6757;52.258;12.840;2023-07-24T10:24:37;26.60;96.70
7461;DHT22;6757;52.258;12.840;2023-07-24T10:27:05;26.80;96.50
7461;DHT22;6757;52.258;12.840;2023-07-24T10:29:38;26.80;96.10
7461;DHT22;6757;52.258;12.840;2023-07-24T10:32:16;26.90;95.80
7461;DHT22;6757;52.258;12.840;2023-07-24T10:34:44;27.00;95.30
7461;DHT22;6757;52.258;12.840;2023-07-24T10:37:10;27.10;95.00
7461;DHT22;6757;52.258;12.840;2023-07-24T10:39:38;27.20;94.30
7461;DHT22;6757;52.258;12.840;2023-07-24T10:42:07;27.20;93.60
7461;DHT22;6757;52.258;12.840;2023-07-24T10:44:35;27.20;93.10
7461;DHT22;6757;52.258;12.840;2023-07-24T10:47:04;27.20;92.80
7461;DHT22;6757;52.258;12.840;2023-07-24T10:49:31;27.30;92.60
7461;DHT22;6757;52.258;12.840;2023-07-24T10:51:58;27.30;92.60
7461;DHT22;6757;52.258;12.840;2023-07-24T10:54:25;27.40;92.70
7461;DHT22;6757;52.258;12.840;2023-07-24T10:56:58;27.50;92.10
7461;DHT22;6757;52.258;12.840;2023-07-24T10:59:37;27.50;91.70
7461;DHT22;6757;52.258;12.840;2023-07-24T11:02:05;27.60;91.40
7461;DHT22;6757;52.258;12.840;2023-07-24T11:04:32;27.60;91.10
7461;DHT22;6757;52.258;12.840;2023-07-24T11:07:00;27.70;91.00
7461;DHT22;6757;52.258;12.840;2023-07-24T11:09:36;27.70;90.90
7461;DHT22;6757;52.258;12.840;2023-07-24T11:12:13;27.90;90.90
7461;DHT22;6757;52.258;12.840;2023-07-24T11:14:52;28.00;90.70
7461;DHT22;6757;52.258;12.840;2023-07-24T11:17:20;28.10;90.40
7461;DHT22;6757;52.258;12.840;2023-07-24T11:19:47;28.10;89.80
7461;DHT22;6757;52.258;12.840;2023-07-24T11:22:14;28.20;87.70
7461;DHT22;6757;52.258;12.840;2023-07-24T11:24:42;28.30;86.90
7461;DHT22;6757;52.258;12.840;2023-07-24T11:27:12;28.30;84.30
7461;DHT22;6757;52.258;12.840;2023-07-24T11:29:41;28.40;84.20
7461;DHT22;6757;52.258;12.840;2023-07-24T11:32:09;28.40;83.60
7461;DHT22;6757;52.258;12.840;2023-07-24T11:34:36;28.50;82.50
7461;DHT22;6757;52.258;12.840;2023-07-24T11:37:04;28.60;82.00
7461;DHT22;6757;52.258;12.840;2023-07-24T11:39:32;28.70;81.30
7461;DHT22;6757;52.258;12.840;2023-07-24T11:42:00;28.80;81.00
7461;DHT22;6757;52.258;12.840;2023-07-24T11:44:28;28.80;80.10
7461;DHT22;6757;52.258;12.840;2023-07-24T11:47:02;28.90;79.50
7461;DHT22;6757;52.258;12.840;2023-07-24T11:49:31;29.00;78.70
7461;DHT22;6757;52.258;12.840;2023-07-24T11:52:04;29.00;78.40
7461;DHT22;6757;52.258;12.840;2023-07-24T11:54:34;28.90;78.80
7461;DHT22;6757;52.258;12.840;2023-07-24T11:57:01;28.80;78.90
7461;DHT22;6757;52.258;12.840;2023-07-24T11:59:28;28.50;79.50
7461;DHT22;6757;52.258;12.840;2023-07-24T12:02:04;28.30;80.20
7461;DHT22;6757;52.258;12.840;2023-07-24T12:04:33;28.10;80.70
7461;DHT22;6757;52.258;12.840;2023-07-24T12:07:00;28.00;81.10
7461;DHT22;6757;52.258;12.840;2023-07-24T12:09:29;27.90;81.40
7461;DHT22;6757;52.258;12.840;2023-07-24T12:11:58;27.70;81.50
7461;DHT22;6757;52.258;12.840;2023-07-24T12:14:25;27.70;82.00
7461;DHT22;6757;52.258;12.840;2023-07-24T12:17:00;27.40;82.20
7461;DHT22;6757;52.258;12.840;2023-07-24T12:19:27;27.30;82.50
7461;DHT22;6757;52.258;12.840;2023-07-24T12:21:56;27.20;82.70
7461;DHT22;6757;52.258;12.840;2023-07-24T12:24:23;27.10;83.00
7461;DHT22;6757;52.258;12.840;2023-07-24T12:26:50;27.10;83.30
7461;DHT22;6757;52.258;12.840;2023-07-24T12:29:16;27.20;83.70
7461;DHT22;6757;52.258;12.840;2023-07-24T12:31:43;27.40;84.50
7461;DHT22;6757;52.258;12.840;2023-07-24T12:34:10;27.70;85.50
7461;DHT22;6757;52.258;12.840;2023-07-24T12:36:37;28.00;86.40
7461;DHT22;6757;52.258;12.840;2023-07-24T12:39:05;28.10;86.80
7461;DHT22;6757;52.258;12.840;2023-07-24T12:41:32;28.10;87.90
7461;DHT22;6757;52.258;12.840;2023-07-24T12:43:59;27.80;89.00
7461;DHT22;6757;52.258;12.840;2023-07-24T12:46:26;27.70;90.00
7461;DHT22;6757;52.258;12.840;2023-07-24T12:48:53;27.60;90.60
7461;DHT22;6757;52.258;12.840;2023-07-24T12:51:20;27.80;91.30
7461;DHT22;6757;52.258;12.840;2023-07-24T12:53:47;28.30;91.70
7461;DHT22;6757;52.258;12.840;2023-07-24T12:56:15;28.80;91.60
7461;DHT22;6757;52.258;12.840;2023-07-24T12:58:42;29.40;91.30
7461;DHT22;6757;52.258;12.840;2023-07-24T13:01:09;29.90;90.90
7461;DHT22;6757;52.258;12.840;2023-07-24T13:03:36;30.30;90.50
7461;DHT22;6757;52.258;12.840;2023-07-24T13:06:03;30.40;90.20
7461;DHT22;6757;52.258;12.840;2023-07-24T13:08:30;30.30;90.00
7461;DHT22;6757;52.258;12.840;2023-07-24T13:10:57;30.30;89.90
7461;DHT22;6757;52.258;12.840;2023-07-24T13:13:25;30.30;89.80
7461;DHT22;6757;52.258;12.840;2023-07-24T13:15:52;30.20;89.60
7461;DHT22;6757;52.258;12.840;2023-07-24T13:18:19;30.00;89.80
7461;DHT22;6757;52.258;12.840;2023-07-24T13:20:46;29.60;90.20
7461;DHT22;6757;52.258;12.840;2023-07-24T13:23:13;29.20;90.60
7461;DHT22;6757;52.258;12.840;2023-07-24T13:25:40;28.80;91.00
7461;DHT22;6757;52.258;12.840;2023-07-24T13:28:07;28.50;91.50
7461;DHT22;6757;52.258;12.840;2023-07-24T13:30:35;28.20;92.10
7461;DHT22;6757;52.258;12.840;2023-07-24T13:33:02;28.00;92.60
7461;DHT22;6757;52.258;12.840;2023-07-24T13:35:29;27.70;93.30
7461;DHT22;6757;52.258;12.840;2023-07-24T13:37:56;27.50;93.90
7461;DHT22;6757;52.258;12.840;2023-07-24T13:40:23;27.20;94.40
7461;DHT22;6757;52.258;12.840;2023-07-24T13:42:50;27.10;94.90
7461;DHT22;6757;52.258;12.840;2023-07-24T13:45:17;26.80;95.40
7461;DHT22;6757;52.258;12.840;2023-07-24T13:47:45;26.70;95.90
7461;DHT22;6757;52.258;12.840;2023-07-24T13:50:12;26.50;96.30
7461;DHT22;6757;52.258;12.840;2023-07-24T13:52:39;26.40;96.60
7461;DHT22;6757;52.258;12.840;2023-07-24T13:55:06;26.20;96.80
7461;DHT22;6757;52.258;12.840;2023-07-24T13:57:34;26.10;96.90
7461;DHT22;6757;52.258;12.840;2023-07-24T14:00:01;25.90;96.70
7461;DHT22;6757;52.258;12.840;2023-07-24T14:02:27;25.70;96.80
7461;DHT22;6757;52.258;12.840;2023-07-24T14:04:56;25.40;97.50
7461;DHT22;6757;52.258;12.840;2023-07-24T14:07:23;25.10;98.60
7461;DHT22;6757;52.258;12.840;2023-07-24T14:09:49;24.80;99.80
7461;DHT22;6757;52.258;12.840;2023-07-24T14:12:16;24.50;99.90
7461;DHT22;6757;52.258;12.840;2023-07-24T14:14:43;24.20;99.90
7461;DHT22;6757;52.258;12.840;2023-07-24T14:17:11;24.10;99.90
7461;DHT22;6757;52.258;12.840;2023-07-24T14:19:40;23.80;99.90
7461;DHT22;6757;52.258;12.840;2023-07-24T14:22:08;23.70;99.90
7461;DHT22;6757;52.258;12.840;2023-07-24T14:24:35;23.70;99.90
7461;DHT22;6757;52.258;12.840;2023-07-24T14:27:02;23.70;99.90
7461;DHT22;6757;52.258;12.840;2023-07-24T14:29:29;23.70;99.90
7461;DHT22;6757;52.258;12.840;2023-07-24T14:31:56;23.90;99.90
7461;DHT22;6757;52.258;12.840;2023-07-24T14:34:22;24.00;99.90
7461;DHT22;6757;52.258;12.840;2023-07-24T14:36:49;24.10;99.90
7461;DHT22;6757;52.258;12.840;2023-07-24T14:39:19;24.20;99.90
7461;DHT22;6757;52.258;12.840;2023-07-24T14:41:46;24.20;99.90
7461;DHT22;6757;52.258;12.840;2023-07-24T14:44:13;24.30;99.90
7461;DHT22;6757;52.258;12.840;2023-07-24T14:46:40;24.40;99.90
7461;DHT22;6757;52.258;12.840;2023-07-24T14:49:07;24.50;99.90
7461;DHT22;6757;52.258;12.840;2023-07-24T14:51:34;24.60;99.90
7461;DHT22;6757;52.258;12.840;2023-07-24T14:54:01;24.60;99.90
7461;DHT22;6757;52.258;12.840;2023-07-24T14:56:29;24.70;99.90
7461;DHT22;6757;52.258;12.840;2023-07-24T14:58:56;24.70;99.90
7461;DHT22;6757;52.258;12.840;2023-07-24T15:01:23;24.80;99.90
7461;DHT22;6757;52.258;12.840;2023-07-24T15:03:53;24.90;99.90
7461;DHT22;6757;52.258;12.840;2023-07-24T15:06:20;25.00;99.90
7461;DHT22;6757;52.258;12.840;2023-07-24T15:08:47;25.10;99.90
7461;DHT22;6757;52.258;12.840;2023-07-24T15:11:14;25.40;99.90
7461;DHT22;6757;52.258;12.840;2023-07-24T15:13:42;25.90;99.90
7461;DHT22;6757;52.258;12.840;2023-07-24T15:16:09;26.60;99.90
7461;DHT22;6757;52.258;12.840;2023-07-24T15:18:36;27.20;99.90
7461;DHT22;6757;52.258;12.840;2023-07-24T15:21:03;27.90;99.90
7461;DHT22;6757;52.258;12.840;2023-07-24T15:23:30;28.60;99.30
7461;DHT22;6757;52.258;12.840;2023-07-24T15:25:57;29.30;97.50
7461;DHT22;6757;52.258;12.840;2023-07-24T15:28:25;29.90;95.50
7461;DHT22;6757;52.258;12.840;2023-07-24T15:30:54;30.60;94.00
7461;DHT22;6757;52.258;12.840;2023-07-24T15:33:21;31.20;92.40
7461;DHT22;6757;52.258;12.840;2023-07-24T15:35:49;31.50;90.50
7461;DHT22;6757;52.258;12.840;2023-07-24T15:38:16;31.80;87.90
7461;DHT22;6757;52.258;12.840;2023-07-24T15:40:43;31.90;85.60
7461;DHT22;6757;52.258;12.840;2023-07-24T15:43:10;32.00;84.00
7461;DHT22;6757;52.258;12.840;2023-07-24T15:45:37;32.00;82.70
7461;DHT22;6757;52.258;12.840;2023-07-24T15:48:05;31.80;81.30